Airfield :
LOGIN :

Register | Disclaimer

   EN    FR    IT 

 










Legend :    VFR   Marginal VFR   IFR   Intensive IFR   Very Intensive IFR
Visi :
Ceiling :
>= 8 km
>= 3000ft
5 to 8 km
1000 to 3000 ft
1500m to 5 km
500 to 1000 ft
800 to 1500m
200 to 500 ft
< 800m
< 200 ft
Symbols :   Thunderstorms  Fog  Heavy snow  Heavy precipitations  Wind > 20 kt
SIGMETs :     Misc.  Thunderstorms  Icing  Turbulence  Mountain Waves  Volcanic Ashes






- Airport Elevation : 535 ft


LFBF - Toulouse / Francazal

CURRENT METAR :
  • 181400Z AUTO 32018G34KT 280V350 9999 //////CB 15/01 Q1020

EXPIRED METARs :
  • 181330Z AUTO 31017KT 9999 FEW045/// BKN054/// //////CB 14/01 Q1020
  • 181300Z AUTO 32017KT 280V350 9999 FEW037 13/03 Q1020
  • 181230Z AUTO 33017KT 9999 BKN040/// BKN047/// BKN058/// ///TCU 12/04 Q1020
  • 181200Z AUTO 33015KT 300V360 9999 SCT042/// SCT049/// BKN056/// ///TCU 13/03 Q1020
  • 181130Z AUTO 34015KT 300V360 9999 BKN044 OVC052 12/02 Q1020
  • 181100Z AUTO 32015KT 290V350 9999 FEW040 BKN048 OVC060 12/02 Q1020
  • 181030Z AUTO 31015KT 9999 FEW036 BKN042 BKN054 12/03 Q1020
  • 181000Z AUTO 32013KT 9999 BKN033 BKN043 BKN052 11/04 Q1020
  • 180930Z AUTO 33013KT 9999 SCT033 BKN045 BKN058 11/03 Q1020

TAF N/A



MET'MAP, your aeronautical weather chart ! - Copyright ORBIFLY December 2007 - Disclaimer

ORBIFLY MET'MAP TEAM :

Programming & Development : Alexandra Zaïnal
Original concept : Baudouin d'Aumeries
Technical & hardware support : Manuel Goepfert
Assistance : Marc-Olivier Méhu




SOURCES & CREDITS :

   NOAA